Time;durP1;ratioP1;P1;durP2;ratioP2;P2;SDS_P1;SDS_P2;PMS_P1;PMS_P2;Temp;Humidity;BMP_temperature;BMP_pressure;BME280_temperature;BME280_humidity;BME280_pressure;Samples;Min_cycle;Max_cycle;Signal;HPM_P1;HPM_P2
2022/05/12 00:00:19;;;;;;;5.45;2.03;;;;;;;22.26;42.20;100476.13;5033190;28;20032;-58
2022/05/12 00:02:45;;;;;;;1.42;1.35;;;;;;;22.30;42.07;100501.50;5032701;28;20021;-59
2022/05/12 00:05:11;;;;;;;1.40;1.30;;;;;;;22.20;42.24;100484.03;5023444;28;20056;-60
2022/05/12 00:07:37;;;;;;;1.70;1.52;;;;;;;22.29;42.32;100507.63;5009499;28;20025;-58
2022/05/12 00:10:03;;;;;;;4.78;1.30;;;;;;;22.27;42.41;100493.63;5024710;28;20029;-55
2022/05/12 00:12:29;;;;;;;1.38;1.00;;;;;;;22.23;42.20;100489.25;5016879;28;20040;-55
2022/05/12 00:14:57;;;;;;;1.80;1.50;;;;;;;22.28;42.38;100479.63;5025859;28;20059;-59
2022/05/12 00:17:22;;;;;;;1.83;1.42;;;;;;;22.28;42.45;100495.38;5026397;28;20248;-59
2022/05/12 00:19:48;;;;;;;3.25;1.35;;;;;;;22.28;42.43;100480.53;5000406;28;20080;-59
2022/05/12 00:22:13;;;;;;;2.03;1.58;;;;;;;22.29;42.20;100478.75;5006192;28;20056;-57
2022/05/12 00:24:38;;;;;;;3.10;1.38;;;;;;;22.29;42.29;100470.88;5010045;28;20029;-61
2022/05/12 00:27:04;;;;;;;3.72;1.80;;;;;;;22.28;42.58;100464.78;5033538;28;20060;-58
2022/05/12 00:29:29;;;;;;;4.47;2.28;;;;;;;22.28;42.57;100472.66;5025936;28;20025;-57
2022/05/12 00:31:55;;;;;;;1.50;1.40;;;;;;;22.29;42.81;100465.63;5017026;28;20045;-59
2022/05/12 00:34:20;;;;;;;1.90;1.20;;;;;;;22.28;42.55;100458.66;5033168;28;20063;-61
2022/05/12 00:36:46;;;;;;;4.13;1.40;;;;;;;22.28;42.56;100454.28;5031269;28;20137;-52
2022/05/12 00:39:11;;;;;;;1.17;1.13;;;;;;;22.28;42.44;100463.91;5022326;28;20040;-56
2022/05/12 00:41:37;;;;;;;2.38;1.42;;;;;;;22.26;42.65;100455.16;5017528;28;20113;-59
2022/05/12 00:44:06;;;;;;;1.60;1.40;;;;;;;22.29;42.56;100460.38;5050289;28;20033;-60
2022/05/12 00:46:37;;;;;;;5.20;1.80;;;;;;;22.27;42.59;100454.28;5029893;28;20482;-60
2022/05/12 00:49:06;;;;;;;3.08;2.15;;;;;;;22.28;42.68;100463.91;5036908;28;20280;-55
2022/05/12 00:51:35;;;;;;;1.48;1.38;;;;;;;22.29;43.04;100470.88;5010050;28;20029;-56
2022/05/12 00:54:03;;;;;;;2.75;1.80;;;;;;;22.28;42.44;100471.75;5026392;28;20478;-58
2022/05/12 00:56:29;;;;;;;1.70;1.60;;;;;;;22.26;42.70;100465.66;5030439;28;20032;-57
2022/05/12 00:59:01;;;;;;;3.47;1.40;;;;;;;22.27;42.76;100467.41;5034604;28;20029;-58
2022/05/12 01:01:26;;;;;;;3.42;1.85;;;;;;;22.29;42.70;100473.50;5053377;28;20029;-56
2022/05/12 01:03:52;;;;;;;1.67;1.50;;;;;;;22.28;42.56;100471.75;5025103;28;20060;-58
2022/05/12 01:06:17;;;;;;;2.55;1.70;;;;;;;22.27;42.93;100472.63;5035645;28;20044;-60
2022/05/12 01:08:43;;;;;;;3.70;2.15;;;;;;;22.28;42.47;100479.63;5015169;28;20652;-56
2022/05/12 01:11:14;;;;;;;1.60;1.50;;;;;;;22.28;42.56;100479.63;5009092;28;20026;-52
2022/05/12 01:13:40;;;;;;;1.17;1.08;;;;;;;22.22;42.68;100470.00;5032768;28;20123;-55
2022/05/12 01:16:05;;;;;;;3.22;1.33;;;;;;;22.26;43.16;100471.75;5035860;28;20036;-59
2022/05/12 01:18:32;;;;;;;1.50;1.40;;;;;;;22.27;42.58;100472.63;5014262;28;20037;-58
2022/05/12 01:20:58;;;;;;;3.35;1.15;;;;;;;22.27;42.64;100481.41;5024578;28;20053;-59
2022/05/12 01:23:32;;;;;;;1.30;1.15;;;;;;;22.28;42.71;100487.50;5032848;28;20037;-57
2022/05/12 01:26:09;;;;;;;1.92;1.70;;;;;;;22.14;43.21;100462.16;5037391;28;20033;-59
2022/05/12 01:28:36;;;;;;;3.92;1.75;;;;;;;22.28;42.98;100479.63;5029382;28;20030;-57
2022/05/12 01:31:03;;;;;;;2.30;1.27;;;;;;;22.28;42.70;100479.63;5029424;28;20130;-56
2022/05/12 01:33:28;;;;;;;2.88;1.50;;;;;;;22.28;42.74;100492.75;5040938;28;20482;-57
2022/05/12 01:35:54;;;;;;;1.60;1.50;;;;;;;22.28;43.25;100490.13;5016986;28;20040;-57
2022/05/12 01:38:20;;;;;;;1.48;1.38;;;;;;;22.28;43.02;100487.50;5041433;28;20087;-56
2022/05/12 01:40:45;;;;;;;3.63;1.33;;;;;;;22.27;42.95;100493.63;5048217;28;20037;-57
2022/05/12 01:43:12;;;;;;;2.20;1.35;;;;;;;22.24;42.90;100489.25;5020836;28;20073;-58
2022/05/12 01:45:37;;;;;;;1.05;1.05;;;;;;;22.27;42.74;100496.25;5015515;28;20025;-57
2022/05/12 01:48:05;;;;;;;2.15;1.02;;;;;;;22.27;42.81;100483.13;5028929;28;20041;-58
2022/05/12 01:50:31;;;;;;;1.65;1.13;;;;;;;22.28;43.31;100490.13;5030446;28;20062;-57
2022/05/12 01:52:56;;;;;;;2.47;1.40;;;;;;;22.21;42.72;100473.50;5050614;28;20047;-56
2022/05/12 01:55:23;;;;;;;4.47;1.27;;;;;;;22.25;42.87;100490.13;5052652;28;20095;-60
2022/05/12 01:57:49;;;;;;;1.58;1.48;;;;;;;22.20;42.97;100486.66;5042977;28;20027;-52
2022/05/12 02:00:21;;;;;;;2.28;1.60;;;;;;;22.28;43.10;100506.75;5048480;28;20025;-59
2022/05/12 02:02:47;;;;;;;3.03;1.67;;;;;;;22.28;43.09;100508.50;5033858;28;20029;-59
2022/05/12 02:05:13;;;;;;;4.68;1.45;;;;;;;22.27;42.90;100510.25;5009712;28;20240;-53
2022/05/12 02:07:43;;;;;;;3.03;1.35;;;;;;;22.27;42.60;100510.25;5013480;28;20480;-53
2022/05/12 02:10:11;;;;;;;1.23;1.15;;;;;;;22.27;43.45;100515.50;5018680;28;20025;-58
2022/05/12 02:12:36;;;;;;;1.02;1.02;;;;;;;22.28;43.42;100509.38;5011281;28;20025;-55
2022/05/12 02:15:03;;;;;;;1.60;1.50;;;;;;;22.27;42.97;100504.13;5017539;28;20036;-56
2022/05/12 02:17:28;;;;;;;2.35;1.80;;;;;;;22.27;43.06;100519.84;5029118;28;20038;-55
2022/05/12 02:19:53;;;;;;;1.45;1.08;;;;;;;22.27;42.81;100519.84;5033855;28;20543;-55
2022/05/12 02:22:19;;;;;;;1.10;1.10;;;;;;;22.24;43.10;100525.09;5047754;28;20056;-53
2022/05/12 02:24:45;;;;;;;1.80;1.65;;;;;;;22.28;43.02;100547.84;5047682;28;20507;-54
2022/05/12 02:27:11;;;;;;;2.83;1.13;;;;;;;22.27;43.45;100553.97;5009811;28;20125;-56
2022/05/12 02:29:36;;;;;;;2.05;1.50;;;;;;;22.27;43.09;100559.22;5047480;28;20108;-52
2022/05/12 02:32:02;;;;;;;2.78;1.58;;;;;;;22.21;43.23;100559.22;5011311;28;20021;-56
2022/05/12 02:34:27;;;;;;;1.35;1.25;;;;;;;22.28;43.08;100585.47;5017773;28;20067;-58
2022/05/12 02:37:01;;;;;;;4.53;1.45;;;;;;;22.29;42.80;100594.19;5028979;28;20119;-56
2022/05/12 02:39:35;;;;;;;2.38;1.30;;;;;;;22.28;42.99;100606.44;5030511;28;20032;-53
2022/05/12 02:42:01;;;;;;;1.17;1.08;;;;;;;22.28;43.06;100616.03;5039949;28;20121;-56
2022/05/12 02:44:27;;;;;;;1.25;1.15;;;;;;;22.29;42.99;100623.03;5016847;28;20033;-54
2022/05/12 02:46:52;;;;;;;0.70;0.70;;;;;;;22.27;43.70;100641.41;5049331;28;20040;-55
2022/05/12 02:49:20;;;;;;;1.30;1.20;;;;;;;22.27;43.50;100656.28;4829846;22;20037;-55
2022/05/12 02:51:50;;;;;;;3.80;1.50;;;;;;;22.27;43.13;100661.53;5022967;28;20063;-54
2022/05/12 02:54:20;;;;;;;1.48;1.40;;;;;;;22.28;43.40;100663.28;5021525;28;20036;-53
2022/05/12 02:56:55;;;;;;;1.58;1.17;;;;;;;22.28;43.38;100689.50;5022174;28;20036;-54
2022/05/12 02:59:23;;;;;;;1.17;0.98;;;;;;;22.22;43.31;100689.50;5050619;28;20037;-54
2022/05/12 03:01:50;;;;;;;1.20;1.10;;;;;;;22.27;43.14;100724.47;5034148;28;20033;-58
2022/05/12 03:04:20;;;;;;;1.00;0.95;;;;;;;22.27;43.31;100734.97;5035099;28;20135;-52
2022/05/12 03:06:52;;;;;;;1.00;1.00;;;;;;;22.27;43.37;100746.34;5031803;28;20055;-55
2022/05/12 03:09:20;;;;;;;1.23;1.00;;;;;;;22.28;43.16;100763.84;5031588;28;20043;-54
2022/05/12 03:11:54;;;;;;;1.17;1.00;;;;;;;22.26;43.21;100752.44;5031529;28;20036;-52
2022/05/12 03:14:20;;;;;;;1.00;1.00;;;;;;;22.22;43.11;100762.94;5020013;28;20393;-53
2022/05/12 03:16:53;;;;;;;1.50;1.40;;;;;;;22.27;43.28;100777.84;5036408;28;20028;-51
2022/05/12 03:19:21;;;;;;;2.03;1.35;;;;;;;22.27;43.46;100782.19;5037167;28;20381;-55
2022/05/12 03:21:53;;;;;;;1.33;1.25;;;;;;;22.26;43.37;100790.94;5035071;28;20086;-55
2022/05/12 03:24:20;;;;;;;2.40;1.45;;;;;;;22.27;43.34;100803.19;5025810;28;20029;-56
2022/05/12 03:26:50;;;;;;;1.65;1.30;;;;;;;22.25;43.44;100812.78;5040851;28;20033;-55
2022/05/12 03:29:30;;;;;;;0.98;0.98;;;;;;;22.27;43.17;100818.94;5029589;28;20448;-54
2022/05/12 03:31:59;;;;;;;1.50;1.40;;;;;;;22.27;43.13;100818.94;5054052;28;20040;-55
2022/05/12 03:34:34;;;;;;;1.05;1.05;;;;;;;22.26;43.13;100827.66;5047725;28;20021;-55
2022/05/12 03:37:01;;;;;;;0.82;0.82;;;;;;;22.25;43.54;100836.41;5031199;28;20101;-52
2022/05/12 03:39:31;;;;;;;1.00;1.00;;;;;;;22.26;43.28;100840.78;5037504;28;20083;-57
2022/05/12 03:42:00;;;;;;;1.20;1.10;;;;;;;22.25;43.40;100844.28;5042991;28;20115;-54
2022/05/12 03:47:22;;;;;;;0.70;0.70;;;;;;;22.25;43.21;100855.63;5060194;28;20074;-54
2022/05/12 03:50:02;;;;;;;1.73;1.63;;;;;;;22.26;43.35;100859.16;5042252;28;20478;-56
2022/05/12 03:52:31;;;;;;;0.80;0.80;;;;;;;22.26;43.37;100880.13;5038098;28;20347;-56
2022/05/12 03:55:00;;;;;;;1.55;1.38;;;;;;;22.24;43.27;100872.25;5034928;28;20059;-54
2022/05/12 03:57:30;;;;;;;1.33;1.17;;;;;;;22.26;43.24;100880.13;5027159;28;20032;-54
2022/05/12 04:00:00;;;;;;;1.00;1.00;;;;;;;22.25;43.47;100883.63;5029798;28;20033;-54
2022/05/12 04:02:30;;;;;;;1.30;1.20;;;;;;;22.24;43.21;100887.13;5031365;28;20043;-52
2022/05/12 04:05:04;;;;;;;3.17;1.10;;;;;;;22.25;43.29;100899.38;5036662;28;20477;-57
2022/05/12 04:07:31;;;;;;;1.13;1.05;;;;;;;22.25;43.60;100904.63;5027217;28;20038;-54
2022/05/12 04:10:03;;;;;;;7.75;1.70;;;;;;;22.25;43.33;100909.88;5030502;28;20093;-52
2022/05/12 04:12:30;;;;;;;1.92;1.15;;;;;;;22.25;43.44;100915.09;5031361;28;20066;-56
2022/05/12 04:15:06;;;;;;;1.02;1.00;;;;;;;22.25;42.98;100921.22;5031849;28;20029;-55
2022/05/12 04:17:40;;;;;;;1.38;1.27;;;;;;;22.24;43.44;100929.97;5029679;28;20036;-53
2022/05/12 04:20:13;;;;;;;1.52;0.90;;;;;;;22.26;43.19;100932.59;5051964;28;20030;-54
2022/05/12 04:22:43;;;;;;;1.52;1.33;;;;;;;22.26;43.62;100943.09;5027259;28;20079;-56
2022/05/12 04:25:25;;;;;;;1.63;1.10;;;;;;;22.25;43.39;100946.59;5047741;28;20029;-54
2022/05/12 04:27:51;;;;;;;1.58;1.17;;;;;;;22.23;43.26;100949.19;5032917;28;20112;-55
2022/05/12 04:30:24;;;;;;;1.05;1.00;;;;;;;22.23;43.33;100953.56;5031514;28;20091;-54
2022/05/12 04:32:51;;;;;;;1.10;1.00;;;;;;;22.24;43.57;100960.56;5041378;28;20040;-58
2022/05/12 04:35:20;;;;;;;2.75;1.40;;;;;;;22.25;43.37;100962.34;5031159;28;20592;-55
2022/05/12 04:37:51;;;;;;;2.33;1.60;;;;;;;22.24;43.31;100977.19;5033632;28;20032;-53
2022/05/12 04:40:25;;;;;;;0.80;0.80;;;;;;;22.26;43.38;100987.69;5034140;28;20388;-57
2022/05/12 04:42:52;;;;;;;2.28;0.90;;;;;;;22.25;43.40;100993.81;5031797;28;20052;-52
2022/05/12 04:45:23;;;;;;;1.95;1.27;;;;;;;22.26;43.18;100998.19;5044209;28;20056;-52
2022/05/12 04:47:51;;;;;;;1.23;1.00;;;;;;;22.24;43.19;101002.56;5036338;28;20021;-54
2022/05/12 04:50:33;;;;;;;4.53;1.17;;;;;;;22.12;43.39;100988.50;5023490;28;20097;-54
2022/05/12 04:53:04;;;;;;;1.30;1.20;;;;;;;22.24;43.28;101019.16;5030735;28;20041;-54
2022/05/12 04:55:33;;;;;;;0.82;0.82;;;;;;;22.25;43.14;101025.28;5024552;28;20115;-56
2022/05/12 04:58:02;;;;;;;1.30;1.15;;;;;;;22.19;43.34;101020.88;5030668;28;20032;-52
2022/05/12 05:00:33;;;;;;;1.42;1.15;;;;;;;22.18;43.22;101027.88;5026312;28;20113;-54
2022/05/12 05:03:04;;;;;;;2.50;0.88;;;;;;;22.26;43.38;101040.16;5037264;28;20029;-52
2022/05/12 05:05:34;;;;;;;1.17;1.10;;;;;;;22.25;43.20;101056.78;5024763;28;20024;-56
2022/05/12 05:08:03;;;;;;;1.08;0.98;;;;;;;22.25;43.12;101064.66;5052240;28;20036;-58
2022/05/12 05:10:32;;;;;;;0.82;0.82;;;;;;;22.17;43.14;101049.72;5035701;28;20043;-52
2022/05/12 05:13:01;;;;;;;2.83;1.25;;;;;;;22.26;43.31;101076.91;5056299;28;20437;-52
2022/05/12 05:15:31;;;;;;;0.80;0.80;;;;;;;22.25;43.13;101077.75;5032291;28;20497;-53
2022/05/12 05:18:07;;;;;;;0.75;0.75;;;;;;;22.26;43.16;101080.38;5022976;28;20040;-53
2022/05/12 05:20:44;;;;;;;2.05;0.90;;;;;;;22.26;43.10;101084.78;5030820;28;20120;-54
2022/05/12 05:23:12;;;;;;;1.08;1.08;;;;;;;22.27;43.33;101102.28;5050979;28;20063;-56
2022/05/12 05:25:41;;;;;;;1.20;1.10;;;;;;;22.27;43.26;101097.03;5036759;28;20045;-53
2022/05/12 05:28:13;;;;;;;1.60;1.25;;;;;;;22.27;43.34;101097.03;5024315;28;20063;-55
2022/05/12 05:30:43;;;;;;;2.47;1.27;;;;;;;22.27;43.14;101102.28;5031610;28;20040;-54
2022/05/12 05:33:11;;;;;;;1.15;1.02;;;;;;;22.29;43.13;101100.53;5035388;28;20458;-53
2022/05/12 05:35:40;;;;;;;0.95;0.95;;;;;;;22.30;43.37;101107.53;5027799;28;20025;-54
2022/05/12 05:38:08;;;;;;;1.05;0.98;;;;;;;22.31;43.24;101109.31;5033014;28;20112;-56
2022/05/12 05:40:34;;;;;;;1.67;1.55;;;;;;;22.31;43.15;101109.31;5025106;28;20074;-56
2022/05/12 05:43:01;;;;;;;1.17;1.08;;;;;;;22.30;43.12;101112.78;5030663;28;20223;-52
2022/05/12 05:45:33;;;;;;;0.80;0.80;;;;;;;22.33;43.10;101118.06;5030199;28;20056;-53
2022/05/12 05:48:04;;;;;;;0.93;0.85;;;;;;;22.32;43.30;101119.81;5041137;28;20090;-54
2022/05/12 05:53:27;;;;;;;1.23;1.13;;;;;;;22.33;43.15;101128.56;5049889;28;20121;-50
2022/05/12 05:56:03;;;;;;;4.65;1.38;;;;;;;22.32;42.94;101129.41;5031210;28;20473;-52
2022/05/12 05:58:33;;;;;;;1.17;1.02;;;;;;;22.33;43.14;101141.69;5047155;28;20066;-58
2022/05/12 06:01:01;;;;;;;1.27;1.20;;;;;;;22.32;43.00;101138.19;5025914;28;20111;-55
2022/05/12 06:03:34;;;;;;;2.35;1.38;;;;;;;22.32;42.99;101147.78;5033432;28;20024;-58
2022/05/12 06:06:01;;;;;;;3.03;1.40;;;;;;;22.32;42.92;101158.28;5049175;28;20036;-50
2022/05/12 06:08:31;;;;;;;1.15;1.08;;;;;;;22.31;42.99;101161.78;5047198;28;20024;-53
2022/05/12 06:11:04;;;;;;;0.98;0.98;;;;;;;22.30;43.14;101162.63;5025752;28;20067;-57
2022/05/12 06:13:33;;;;;;;3.28;1.13;;;;;;;22.26;43.24;101163.47;5026078;28;20129;-55
2022/05/12 06:16:05;;;;;;;1.25;1.15;;;;;;;22.31;43.07;101169.66;5033925;28;20417;-51
2022/05/12 06:18:32;;;;;;;1.20;0.93;;;;;;;22.32;42.96;101179.28;5025914;28;20131;-62
2022/05/12 06:21:01;;;;;;;1.05;1.05;;;;;;;22.32;43.10;101185.41;5025367;28;20039;-61
2022/05/12 06:23:32;;;;;;;3.30;1.77;;;;;;;22.37;43.07;101187.22;5022231;28;20492;-51
2022/05/12 06:26:14;;;;;;;2.30;1.88;;;;;;;22.38;43.24;101199.47;5042607;28;20032;-56
2022/05/12 06:28:45;;;;;;;2.00;1.75;;;;;;;22.36;43.17;101188.94;5026871;28;20049;-48
2022/05/12 06:31:15;;;;;;;17.58;1.80;;;;;;;22.39;42.95;101202.09;5032446;28;20047;-50
2022/05/12 06:33:42;;;;;;;5.70;1.88;;;;;;;22.39;43.15;101203.84;5025249;28;20044;-52
2022/05/12 06:36:11;;;;;;;6.82;1.60;;;;;;;22.40;43.14;101218.72;5026584;28;20052;-49
2022/05/12 06:38:43;;;;;;;2.50;1.23;;;;;;;22.39;43.24;101217.81;5026414;28;20036;-50
2022/05/12 06:41:12;;;;;;;1.92;1.52;;;;;;;22.40;43.25;101219.59;5047769;28;20403;-52
2022/05/12 06:43:45;;;;;;;1.23;1.13;;;;;;;22.41;43.01;101218.72;5043956;28;20033;-53
2022/05/12 06:46:16;;;;;;;1.50;1.40;;;;;;;22.41;43.08;101221.34;5029052;28;20070;-45
2022/05/12 06:48:51;;;;;;;7.55;1.90;;;;;;;22.42;43.32;101228.34;5028484;28;20045;-56
2022/05/12 06:51:23;;;;;;;1.77;1.67;;;;;;;22.42;43.28;101244.09;5025361;28;20070;-50
2022/05/12 06:53:49;;;;;;;2.47;1.52;;;;;;;22.43;43.20;101235.38;5042262;28;20025;-53
2022/05/12 06:56:19;;;;;;;1.88;1.77;;;;;;;22.43;43.10;101251.09;5030069;28;20024;-45
2022/05/12 06:58:49;;;;;;;1.38;1.30;;;;;;;22.41;43.10;101252.84;5024034;28;20033;-49
2022/05/12 07:01:20;;;;;;;2.58;1.42;;;;;;;22.41;43.08;101252.84;5045507;28;20050;-51
2022/05/12 07:03:49;;;;;;;1.30;1.20;;;;;;;22.43;43.33;101264.22;5026022;28;20033;-49
2022/05/12 07:06:16;;;;;;;6.28;1.45;;;;;;;22.43;43.01;101261.59;5035339;28;20466;-50
2022/05/12 07:08:42;;;;;;;2.80;1.33;;;;;;;22.44;43.47;101262.50;5032387;28;20025;-50
2022/05/12 07:11:12;;;;;;;1.08;1.02;;;;;;;22.42;43.31;101275.59;5033417;28;20040;-50
2022/05/12 07:13:38;;;;;;;1.45;1.20;;;;;;;22.39;43.39;101279.94;5031551;28;20207;-49
2022/05/12 07:16:04;;;;;;;4.18;1.52;;;;;;;22.42;43.57;101283.47;5026809;28;20128;-49
2022/05/12 07:18:30;;;;;;;7.35;1.55;;;;;;;22.41;43.05;101286.97;5032324;28;20037;-45
2022/05/12 07:26:35;;;;;;;5.47;1.38;;;;;;;22.37;43.29;101298.28;5051699;28;20028;-49
2022/05/12 07:29:04;;;;;;;3.75;1.63;;;;;;;22.42;43.25;101309.72;5037830;28;20123;-43
2022/05/12 07:31:31;;;;;;;2.47;1.38;;;;;;;22.27;43.44;101291.19;5044972;28;20024;-45
2022/05/12 07:33:57;;;;;;;2.97;1.48;;;;;;;22.41;43.13;101310.56;5032205;28;20456;-45
2022/05/12 07:36:29;;;;;;;8.00;1.70;;;;;;;22.41;43.21;101326.31;5026263;28;20064;-46
2022/05/12 07:38:55;;;;;;;1.77;1.10;;;;;;;22.39;43.38;101322.81;5054368;28;20566;-46
2022/05/12 07:41:21;;;;;;;1.42;1.20;;;;;;;22.40;43.50;101339.44;5036404;28;20465;-45
2022/05/12 07:43:47;;;;;;;2.53;1.30;;;;;;;22.39;43.45;101333.31;5046936;28;20046;-47
2022/05/12 07:46:15;;;;;;;1.33;1.23;;;;;;;22.40;43.33;101340.31;5030714;28;20036;-49
2022/05/12 07:48:41;;;;;;;4.93;1.58;;;;;;;22.39;43.20;101338.53;5030577;28;20039;-43
2022/05/12 07:51:07;;;;;;;1.63;1.20;;;;;;;22.40;43.44;101340.31;5050419;28;20136;-43
2022/05/12 07:53:33;;;;;;;2.28;1.55;;;;;;;22.39;42.97;101337.69;5035931;28;20024;-48
2022/05/12 07:55:58;;;;;;;1.25;1.10;;;;;;;22.40;43.09;101349.94;5041059;28;20071;-49
2022/05/12 07:58:24;;;;;;;3.20;1.55;;;;;;;22.31;43.22;101341.09;5031982;28;20029;-49
2022/05/12 08:00:50;;;;;;;2.03;1.45;;;;;;;22.40;43.05;101353.44;5033807;28;20124;-46
2022/05/12 08:03:17;;;;;;;5.25;1.48;;;;;;;22.37;43.21;101350.78;5046642;28;20044;-45
2022/05/12 08:05:42;;;;;;;1.25;1.20;;;;;;;22.40;43.38;101353.44;5025303;28;20520;-47
2022/05/12 08:08:09;;;;;;;1.40;1.30;;;;;;;22.39;43.28;101354.28;5045086;28;20443;-49
2022/05/12 08:10:35;;;;;;;1.92;1.55;;;;;;;22.41;43.61;101362.19;5032586;28;20033;-46
2022/05/12 08:13:00;;;;;;;3.85;1.95;;;;;;;22.41;43.13;101363.06;5034092;28;20032;-46
2022/05/12 08:15:26;;;;;;;5.38;2.50;;;;;;;22.36;42.91;101359.50;5034423;28;20041;-45
2022/05/12 08:17:55;;;;;;;3.92;1.85;;;;;;;22.42;43.31;101377.09;5036016;28;20041;-44
2022/05/12 08:20:22;;;;;;;6.90;1.60;;;;;;;22.41;43.10;101373.56;5018895;28;20462;-46
2022/05/12 08:22:47;;;;;;;2.97;1.67;;;;;;;22.40;43.12;101377.06;5039212;28;20114;-47
2022/05/12 08:25:13;;;;;;;8.43;2.67;;;;;;;22.38;42.90;101378.78;5030040;28;20170;-49
2022/05/12 08:27:38;;;;;;;1.45;1.35;;;;;;;22.39;43.00;101375.28;5053544;28;20086;-44
2022/05/12 08:30:07;;;;;;;1.60;1.30;;;;;;;22.41;43.04;101389.31;5058242;28;20044;-51
2022/05/12 08:32:33;;;;;;;3.63;1.45;;;;;;;22.37;42.95;101377.00;5064417;28;20025;-43
2022/05/12 08:35:02;;;;;;;2.50;1.60;;;;;;;22.41;42.69;101381.44;5023526;28;20029;-45
2022/05/12 08:37:28;;;;;;;2.92;1.67;;;;;;;22.41;42.86;101378.81;5030444;28;20401;-50
2022/05/12 08:39:54;;;;;;;1.75;1.00;;;;;;;22.42;43.41;101390.19;5022274;28;20044;-53
2022/05/12 08:42:35;;;;;;;2.30;1.42;;;;;;;22.33;43.12;101375.22;5047770;28;20468;-45
2022/05/12 08:45:03;;;;;;;2.10;1.33;;;;;;;22.37;43.06;101387.50;5062892;28;20036;-47
2022/05/12 08:47:34;;;;;;;2.00;1.80;;;;;;;22.43;43.00;101400.72;5048538;28;20037;-44
2022/05/12 08:50:00;;;;;;;16.05;1.95;;;;;;;22.43;43.12;101408.56;5041676;28;20503;-45
2022/05/12 08:52:54;;;;;;;1.63;1.42;;;;;;;22.42;42.74;101405.94;5055801;28;20064;-51
2022/05/12 08:55:34;;;;;;;1.58;1.35;;;;;;;22.41;43.17;101410.31;5037660;28;20044;-44
2022/05/12 08:58:04;;;;;;;1.27;1.17;;;;;;;22.44;43.09;101415.59;5064618;28;20095;-44
2022/05/12 09:00:36;;;;;;;1.50;1.20;;;;;;;22.44;43.16;101414.72;5033625;28;20029;-47
2022/05/12 09:03:26;;;;;;;2.95;2.00;;;;;;;22.45;42.91;101417.38;5017176;28;20086;-44
2022/05/12 09:06:44;;;;;;;9.35;1.80;;;;;;;22.48;42.95;101411.31;5031892;28;20032;-44
2022/05/12 09:09:26;;;;;;;2.83;2.08;;;;;;;22.47;42.64;101409.53;5021397;28;20077;-45
2022/05/12 09:12:21;;;;;;;10.02;2.55;;;;;;;22.47;42.92;101420.91;5052448;28;20085;-46
2022/05/12 09:14:54;;;;;;;1.85;1.52;;;;;;;22.47;43.14;101420.03;5061321;28;20025;-50
2022/05/12 09:17:22;;;;;;;4.22;2.17;;;;;;;22.46;42.78;101419.16;5038990;28;20037;-48
2022/05/12 09:19:48;;;;;;;9.38;2.15;;;;;;;22.46;43.17;101419.16;5052864;28;20056;-44
2022/05/12 09:22:13;;;;;;;2.60;1.90;;;;;;;22.49;42.68;101417.41;5053389;28;20441;-62
2022/05/12 09:24:39;;;;;;;7.03;2.33;;;;;;;22.53;42.75;101424.47;5048620;28;20033;-62
2022/05/12 09:27:12;;;;;;;3.92;1.95;;;;;;;22.47;42.89;101414.78;5056116;28;20082;-60
2022/05/12 09:29:46;;;;;;;2.43;2.23;;;;;;;22.51;42.85;101420.94;5027330;28;20470;-60
2022/05/12 09:32:11;;;;;;;3.45;1.63;;;;;;;22.51;42.91;101428.81;5055681;28;20280;-57
2022/05/12 09:34:39;;;;;;;1.90;1.63;;;;;;;22.51;43.09;101415.69;5074632;28;20488;-60
2022/05/12 09:37:19;;;;;;;4.22;1.92;;;;;;;22.50;42.78;101424.44;5039646;28;20373;-60
2022/05/12 09:39:53;;;;;;;1.83;1.73;;;;;;;22.52;42.82;101422.72;5047919;28;20032;-52
2022/05/12 09:42:28;;;;;;;2.95;1.88;;;;;;;22.51;42.84;101418.31;5025223;28;20119;-47
2022/05/12 09:45:01;;;;;;;3.97;1.80;;;;;;;22.52;42.99;101427.97;5056437;28;20040;-51
2022/05/12 09:47:28;;;;;;;5.97;2.37;;;;;;;22.52;42.82;101426.22;5036763;28;20029;-50
2022/05/12 09:50:20;;;;;;;4.93;1.90;;;;;;;22.54;42.94;101431.47;5057813;28;20029;-50
2022/05/12 09:52:55;;;;;;;5.82;2.15;;;;;;;22.54;42.81;101426.22;5066588;28;20033;-50
2022/05/12 09:55:29;;;;;;;2.03;1.73;;;;;;;22.53;42.71;101413.97;5049895;28;20115;-49
2022/05/12 09:58:00;;;;;;;1.30;1.20;;;;;;;22.53;42.56;101413.97;5056339;28;20025;-46
2022/05/12 10:00:48;;;;;;;2.28;1.77;;;;;;;22.53;42.82;101429.72;5038355;28;20029;-48
2022/05/12 10:09:10;;;;;;;4.95;1.50;;;;;;;22.52;43.25;101438.47;5052026;28;20024;-48
2022/05/12 10:12:02;;;;;;;1.40;1.27;;;;;;;22.53;42.81;101440.22;5033575;28;20112;-51
2022/05/12 10:14:33;;;;;;;1.95;1.70;;;;;;;22.54;42.63;101442.88;5074041;28;20024;-50
2022/05/12 10:17:03;;;;;;;3.75;1.63;;;;;;;22.54;42.80;101436.72;5039084;28;20032;-49
2022/05/12 10:19:29;;;;;;;1.25;1.00;;;;;;;22.52;43.13;101433.22;5068470;28;20029;-48
2022/05/12 10:22:19;;;;;;;2.70;1.48;;;;;;;22.47;42.67;101431.41;5049577;28;20484;-48
2022/05/12 10:24:53;;;;;;;1.77;1.52;;;;;;;22.50;42.94;101438.44;5015717;28;20051;-48
2022/05/12 10:27:32;;;;;;;1.60;1.50;;;;;;;22.50;42.73;101442.81;5038193;28;20035;-46
2022/05/12 10:30:33;;;;;;;2.10;1.48;;;;;;;22.52;42.76;101449.84;5054050;28;20064;-51
2022/05/12 10:33:20;;;;;;;3.55;1.45;;;;;;;22.56;42.31;101440.25;5049547;28;20037;-49
2022/05/12 10:36:04;;;;;;;2.22;1.30;;;;;;;22.50;42.32;101434.94;5073949;28;20047;-49
2022/05/12 10:38:46;;;;;;;0.93;0.82;;;;;;;22.56;42.41;101456.00;5055269;28;20028;-45
2022/05/12 10:41:21;;;;;;;2.35;1.52;;;;;;;22.53;42.52;101461.22;5039046;28;20354;-48
2022/05/12 10:44:08;;;;;;;1.20;1.08;;;;;;;22.52;42.38;101456.84;5038622;28;20040;-49
2022/05/12 10:46:56;;;;;;;2.38;0.95;;;;;;;22.50;42.57;101467.31;5055264;28;20450;-47
2022/05/12 10:49:56;;;;;;;2.25;1.88;;;;;;;22.52;42.41;101469.97;5055398;28;20040;-46
2022/05/12 10:52:53;;;;;;;1.33;0.88;;;;;;;22.51;42.40;101468.19;5072521;28;20028;-49
2022/05/12 10:55:49;;;;;;;1.60;1.10;;;;;;;22.54;42.54;101469.13;5041070;28;20037;-49
2022/05/12 10:58:26;;;;;;;1.88;1.40;;;;;;;22.50;42.28;101450.69;5041573;28;20067;-54
2022/05/12 11:01:10;;;;;;;1.02;0.93;;;;;;;22.58;42.18;101456.91;5065698;28;20357;-48
2022/05/12 11:04:04;;;;;;;1.33;1.23;;;;;;;22.59;42.30;101456.03;5053787;28;20033;-48
2022/05/12 11:06:36;;;;;;;3.77;1.70;;;;;;;22.63;41.96;101447.34;5038118;28;20028;-49
2022/05/12 11:09:18;;;;;;;0.70;0.70;;;;;;;22.64;42.01;101443.84;5042741;28;20470;-51
2022/05/12 11:11:45;;;;;;;1.40;1.30;;;;;;;22.63;42.22;101452.59;5035362;28;20469;-49
2022/05/12 11:14:23;;;;;;;1.13;1.10;;;;;;;22.63;42.21;101447.34;5038156;28;20032;-50
2022/05/12 11:17:15;;;;;;;1.23;1.02;;;;;;;22.65;42.24;101448.25;5042209;28;20116;-50
2022/05/12 11:19:44;;;;;;;2.55;0.95;;;;;;;22.65;41.92;101450.88;5051040;28;20131;-48
2022/05/12 11:22:59;;;;;;;4.25;1.38;;;;;;;22.66;42.02;101447.38;5050693;28;20028;-50
2022/05/12 11:25:25;;;;;;;;;;;;;;;22.69;42.13;101443.94;4987232;28;20194;-45
2022/05/12 11:31:07;;;;;;;1.63;1.30;;;;;;;22.69;42.00;101452.66;5040549;28;20059;-48
2022/05/12 11:33:34;;;;;;;17.05;1.30;;;;;;;22.66;41.87;101444.75;5060955;28;20465;-46
2022/05/12 11:36:01;;;;;;;1.65;1.20;;;;;;;22.69;42.11;101446.53;5037441;28;20071;-49
2022/05/12 11:38:43;;;;;;;3.40;1.23;;;;;;;22.69;41.81;101447.41;5070931;28;20032;-50
2022/05/12 11:41:20;;;;;;;1.45;1.35;;;;;;;22.69;41.71;101457.91;5057404;28;20029;-45
2022/05/12 11:46:49;;;;;;;9.90;1.40;;;;;;;22.67;42.21;101454.38;5049515;28;20034;-49
2022/05/12 11:49:31;;;;;;;1.42;1.33;;;;;;;22.69;42.25;101457.06;5065567;28;20464;-50
2022/05/12 11:52:42;;;;;;;1.73;1.50;;;;;;;22.72;42.11;101452.69;5070864;28;20388;-49
2022/05/12 11:55:22;;;;;;;2.38;1.30;;;;;;;22.77;42.15;101451.00;5013932;28;20065;-51
2022/05/12 11:57:57;;;;;;;4.07;1.25;;;;;;;22.75;41.82;101444.84;5054507;28;20044;-50
2022/05/12 12:00:34;;;;;;;3.45;0.82;;;;;;;22.83;42.21;101444.09;5050461;28;20037;-50
2022/05/12 12:03:15;;;;;;;1.55;1.35;;;;;;;22.85;41.93;101445.84;5068320;28;20433;-47
2022/05/12 12:05:40;;;;;;;0.90;0.82;;;;;;;22.88;41.89;101439.78;5058240;28;20032;-46